createdAt,value
2018-01-03T00:00:13.150Z,85.6
2018-01-03T00:01:12.251Z,85.6
2018-01-03T00:02:11.144Z,85.6
2018-01-03T00:03:10.042Z,85.7
2018-01-03T00:04:08.940Z,85.4
2018-01-03T00:06:07.033Z,84.9
2018-01-03T00:07:05.931Z,84.7
2018-01-03T00:08:05.035Z,84.8
2018-01-03T00:09:04.034Z,84.7
2018-01-03T00:10:03.245Z,84.7
2018-01-03T00:11:02.378Z,84.6
2018-01-03T00:12:01.383Z,84.7
2018-01-03T00:13:00.284Z,84.8
2018-01-03T00:13:59.402Z,84.7
2018-01-03T00:14:58.189Z,84.4
2018-01-03T00:15:57.405Z,84.4
2018-01-03T00:16:56.301Z,84.4
2018-01-03T00:17:55.406Z,84.4
2018-01-03T00:18:54.299Z,84.3
2018-01-03T00:19:53.189Z,84.3
2018-01-03T00:21:51.577Z,84.4
2018-01-03T00:22:50.575Z,84.3
2018-01-03T00:24:48.590Z,84.2
2018-01-03T00:25:47.193Z,84.2
2018-01-03T00:26:46.695Z,84.3
2018-01-03T00:27:45.403Z,84.3
2018-01-03T00:28:44.616Z,84.1
2018-01-03T00:29:43.623Z,84
2018-01-03T00:30:42.619Z,84.1
2018-01-03T00:31:41.622Z,83.8
2018-01-03T00:32:40.539Z,83.8
2018-01-03T00:33:39.652Z,83.7
2018-01-03T00:34:38.575Z,83.7
2018-01-03T00:35:08.790Z,83.7
2018-01-03T00:35:38.903Z,83.5
2018-01-03T00:36:09.329Z,83.5
2018-01-03T00:37:35.614Z,83.6
2018-01-03T00:38:34.736Z,83.3
2018-01-03T00:39:33.847Z,83.3
2018-01-03T00:40:32.701Z,83.3
2018-01-03T00:41:31.703Z,83.3
2018-01-03T00:42:30.851Z,83.2
2018-01-03T00:43:29.853Z,83.2
2018-01-03T00:44:28.968Z,83.2
2018-01-03T00:45:27.969Z,83.7
2018-01-03T00:46:26.976Z,83.2
2018-01-03T00:47:25.868Z,83.2
2018-01-03T00:48:24.862Z,83.1
2018-01-03T00:49:24.126Z,83
2018-01-03T00:51:21.899Z,83
2018-01-03T00:52:20.889Z,83.2
2018-01-03T00:53:20.103Z,83.1
2018-01-03T00:54:19.298Z,83.1
2018-01-03T00:56:17.198Z,83.1
2018-01-03T00:57:16.201Z,83.4
2018-01-03T00:58:15.200Z,83.2
2018-01-03T00:59:14.201Z,83.1
2018-01-03T01:00:13.195Z,83.1
2018-01-03T01:00:43.515Z,83.1
2018-01-03T01:01:13.725Z,83.3
2018-01-03T01:02:11.217Z,83.3
2018-01-03T01:03:10.328Z,83.1
2018-01-03T01:04:09.228Z,83.2
2018-01-03T01:05:08.349Z,83.2
2018-01-03T01:06:07.151Z,83
2018-01-03T01:07:06.156Z,82.9
2018-01-03T01:08:05.457Z,83.1
2018-01-03T01:09:04.466Z,83
2018-01-03T01:10:03.576Z,83.1
2018-01-03T01:11:02.511Z,82.8
2018-01-03T01:11:32.937Z,82.8
2018-01-03T01:12:03.549Z,82.9
2018-01-03T01:13:00.749Z,82.9
2018-01-03T01:13:59.252Z,82.7
2018-01-03T01:14:58.469Z,82.8
2018-01-03T01:15:57.466Z,82.5
2018-01-03T01:16:56.361Z,82.4
2018-01-03T01:17:55.693Z,82.6
2018-01-03T01:18:54.581Z,82.9
2018-01-03T01:20:52.573Z,82.5
2018-01-03T01:21:51.574Z,82.5
2018-01-03T01:22:50.577Z,82.4
2018-01-03T01:23:49.969Z,82.5
2018-01-03T01:24:48.962Z,82.6
2018-01-03T01:25:47.567Z,82.3
2018-01-03T01:26:46.676Z,82.4
2018-01-03T01:27:45.784Z,82.7
2018-01-03T01:28:44.993Z,82.5
2018-01-03T01:29:43.994Z,82.8
2018-01-03T01:30:42.810Z,81.8
2018-01-03T01:31:41.812Z,81.2
2018-01-03T01:32:40.917Z,81.2
2018-01-03T01:33:39.920Z,81.3
2018-01-03T01:34:38.816Z,81.3
2018-01-03T01:35:37.933Z,80.8
2018-01-03T01:36:37.328Z,80.6
2018-01-03T01:37:36.035Z,80.1
2018-01-03T01:38:35.247Z,80.2
2018-01-03T01:39:34.252Z,80.3
2018-01-03T01:40:33.255Z,80
2018-01-03T01:41:32.468Z,79.6
2018-01-03T01:43:30.457Z,79.4
2018-01-03T01:44:29.351Z,79
2018-01-03T01:45:28.353Z,79
2018-01-03T01:46:27.559Z,79.5
2018-01-03T01:47:26.453Z,79.1
2018-01-03T01:48:25.452Z,79
2018-01-03T01:49:24.563Z,78.9
2018-01-03T01:50:23.663Z,79
2018-01-03T01:51:22.826Z,79.1
2018-01-03T01:51:53.043Z,79.1
2018-01-03T01:52:23.360Z,78.8
2018-01-03T01:52:53.775Z,78.8
2018-01-03T01:54:19.843Z,79
2018-01-03T01:55:18.951Z,79.2
2018-01-03T01:56:17.560Z,79.1
2018-01-03T01:57:16.674Z,79.1
2018-01-03T01:58:15.604Z,79.3
2018-01-03T01:59:14.604Z,79.3
2018-01-03T02:00:13.819Z,79.3
2018-01-03T02:01:13.153Z,79
2018-01-03T02:02:11.869Z,79.3
2018-01-03T02:03:11.081Z,79.1
2018-01-03T02:05:09.078Z,79.1
2018-01-03T02:07:07.069Z,78.9
2018-01-03T02:08:06.285Z,78.6
2018-01-03T02:09:05.396Z,78.7
2018-01-03T02:10:04.290Z,78.6
2018-01-03T02:11:03.410Z,78.8
2018-01-03T02:12:02.219Z,78.4
2018-01-03T02:13:01.337Z,78.8
2018-01-03T02:14:00.272Z,78.5
2018-01-03T02:14:59.789Z,78.6
2018-01-03T02:15:58.527Z,78.7
2018-01-03T02:16:57.645Z,78.8
2018-01-03T02:17:56.541Z,78.7
2018-01-03T02:18:55.434Z,78.8
2018-01-03T02:19:54.433Z,78.9
2018-01-03T02:20:53.437Z,78.8
2018-01-03T02:21:52.836Z,78.9
2018-01-03T02:23:50.720Z,78.8
2018-01-03T02:24:49.616Z,79.1
2018-01-03T02:25:49.121Z,79
2018-01-03T02:26:48.117Z,79.2
2018-01-03T02:27:47.015Z,79.1
2018-01-03T02:28:45.833Z,78.9
2018-01-03T02:29:44.839Z,78.9
2018-01-03T02:30:43.837Z,78.7
2018-01-03T02:31:42.840Z,78.5
2018-01-03T02:32:13.160Z,78.5
2018-01-03T02:32:43.473Z,78.3
2018-01-03T02:33:13.888Z,78.3
2018-01-03T02:34:40.163Z,78.4
2018-01-03T02:35:39.271Z,78.7
2018-01-03T02:36:38.491Z,79
2018-01-03T02:37:37.493Z,78.8
2018-01-03T02:38:36.707Z,78.6
2018-01-03T02:39:35.201Z,78.7
2018-01-03T02:40:34.606Z,78.7
2018-01-03T02:41:33.730Z,78.6
2018-01-03T02:42:32.450Z,78.5
2018-01-03T02:43:31.574Z,78.4
2018-01-03T02:44:30.810Z,78.3
2018-01-03T02:45:29.636Z,78.9
2018-01-03T02:46:28.644Z,78.7
2018-01-03T02:47:27.762Z,78.7
2018-01-03T02:49:25.869Z,79.3
2018-01-03T02:50:25.092Z,78.9
2018-01-03T02:51:23.699Z,79
2018-01-03T02:52:22.911Z,79.3
2018-01-03T02:53:21.910Z,79.3
2018-01-03T02:54:20.914Z,79.5
2018-01-03T02:55:19.916Z,79.4
2018-01-03T02:56:19.128Z,79.3
2018-01-03T02:57:18.240Z,79.2
2018-01-03T02:58:17.349Z,79.1
2018-01-03T02:59:16.368Z,79.1
2018-01-03T03:00:15.480Z,79.4
2018-01-03T03:01:14.367Z,79.5
2018-01-03T03:02:13.377Z,79.4
2018-01-03T03:03:12.282Z,79.1
2018-01-03T03:04:11.282Z,79.1
2018-01-03T03:05:10.545Z,79
2018-01-03T03:06:09.757Z,78.8
2018-01-03T03:07:08.355Z,79.7
2018-01-03T03:08:07.466Z,79.3
2018-01-03T03:09:06.471Z,79.1
2018-01-03T03:10:05.580Z,78.9
2018-01-03T03:11:04.976Z,79.3
2018-01-03T03:12:04.088Z,79
2018-01-03T03:12:34.521Z,79
2018-01-03T03:13:04.843Z,79
2018-01-03T03:14:01.934Z,79.1
2018-01-03T03:15:00.941Z,80
2018-01-03T03:16:00.277Z,79.2
2018-01-03T03:16:58.885Z,79.3
2018-01-03T03:17:57.787Z,79
2018-01-03T03:18:57.194Z,78.7
2018-01-03T03:19:56.093Z,78.7
2018-01-03T03:20:55.101Z,78.9
2018-01-03T03:21:54.104Z,78.7
2018-01-03T03:22:53.211Z,79
2018-01-03T03:23:52.507Z,78.8
2018-01-03T03:24:51.400Z,78.9
2018-01-03T03:25:50.506Z,79.2
2018-01-03T03:26:49.715Z,79.4
2018-01-03T03:27:48.418Z,79.8
2018-01-03T03:28:18.843Z,79.8
2018-01-03T03:28:49.058Z,80
2018-01-03T03:29:46.338Z,80.6
2018-01-03T03:30:45.635Z,80.6
2018-01-03T03:31:44.751Z,82
2018-01-03T03:32:43.752Z,81.5
2018-01-03T03:33:42.752Z,83.1
2018-01-03T03:34:41.751Z,83.4
2018-01-03T03:35:40.851Z,84.2
2018-01-03T03:36:39.965Z,85
2018-01-03T03:37:39.067Z,85.5
2018-01-03T03:38:37.878Z,86.4
2018-01-03T03:39:36.887Z,87.2
2018-01-03T03:40:35.783Z,87.1
2018-01-03T03:41:35.206Z,88.1
2018-01-03T03:42:34.308Z,88.7
2018-01-03T03:43:32.903Z,88.5
2018-01-03T03:44:32.495Z,89.1
2018-01-03T03:45:31.383Z,89.5
2018-01-03T03:46:30.362Z,90
2018-01-03T03:47:29.460Z,89.5
2018-01-03T03:48:28.238Z,89.5
2018-01-03T03:49:27.231Z,89.9
2018-01-03T03:50:26.727Z,89.9
2018-01-03T03:51:25.474Z,90.4
2018-01-03T03:52:24.360Z,90.3
2018-01-03T03:53:23.459Z,90.3
2018-01-03T03:54:22.344Z,90.9
2018-01-03T03:55:21.946Z,91.7
2018-01-03T03:56:20.437Z,91.7
2018-01-03T03:56:50.852Z,91.7
2018-01-03T03:57:21.161Z,91.8
2018-01-03T03:57:51.582Z,91.8
2018-01-03T03:58:21.881Z,92.1
2018-01-03T03:58:52.089Z,92.1
2018-01-03T04:00:16.641Z,92.1
2018-01-03T04:01:16.036Z,92
2018-01-03T04:03:14.124Z,92.6
2018-01-03T04:04:13.228Z,92.8
2018-01-03T04:05:12.114Z,92.6
2018-01-03T04:06:11.211Z,92.6
2018-01-03T04:06:41.410Z,92.6
2018-01-03T04:07:11.720Z,92.9
2018-01-03T04:07:42.416Z,92.9
2018-01-03T04:08:12.823Z,92.9
2018-01-03T04:08:43.230Z,92.9
2018-01-03T04:09:13.641Z,92.9
2018-01-03T04:09:44.154Z,92.9
2018-01-03T04:10:14.569Z,92.7
2018-01-03T04:10:44.875Z,92.7
2018-01-03T04:12:05.113Z,93.1
2018-01-03T04:13:04.511Z,93.1
2018-01-03T04:14:03.506Z,93.2
2018-01-03T04:15:02.265Z,93.6
2018-01-03T04:16:01.365Z,93.3
2018-01-03T04:17:00.456Z,93.5
2018-01-03T04:17:59.447Z,93.5
2018-01-03T04:18:58.441Z,93.4
2018-01-03T04:19:57.645Z,93.7
2018-01-03T04:20:56.635Z,93.6
2018-01-03T04:21:55.733Z,93.7
2018-01-03T04:22:54.723Z,93.6
2018-01-03T04:23:53.721Z,93.7
2018-01-03T04:24:52.926Z,93.6
2018-01-03T04:25:51.522Z,93.8
2018-01-03T04:26:51.016Z,93.7
2018-01-03T04:27:49.711Z,93.8
2018-01-03T04:28:48.699Z,93.7
2018-01-03T04:29:48.087Z,93.8
2018-01-03T04:30:46.784Z,93.8
2018-01-03T04:31:46.279Z,93.8
2018-01-03T04:32:44.979Z,93.9
2018-01-03T04:33:44.369Z,93.9
2018-01-03T04:35:42.054Z,94.1
2018-01-03T04:36:41.247Z,93.7
2018-01-03T04:37:40.342Z,93.5
2018-01-03T04:38:39.239Z,93.6
2018-01-03T04:39:38.339Z,93.4
2018-01-03T04:40:37.338Z,93.7
2018-01-03T04:41:36.226Z,94
2018-01-03T04:42:35.379Z,93.6
2018-01-03T04:43:34.369Z,94.2
2018-01-03T04:44:33.461Z,93.9
2018-01-03T04:45:32.241Z,93.6
2018-01-03T04:46:31.231Z,93.6
2018-01-03T04:47:30.330Z,93.5
2018-01-03T04:48:00.927Z,93.5
2018-01-03T04:48:31.445Z,93.5
2018-01-03T04:49:01.644Z,93.5
2018-01-03T04:49:31.961Z,93.2
2018-01-03T04:50:02.373Z,93.2
2018-01-03T04:50:32.793Z,93.4
2018-01-03T04:51:03.198Z,93.4
2018-01-03T04:52:25.444Z,93.5
2018-01-03T04:53:24.749Z,93.5
2018-01-03T04:54:23.950Z,93.5
2018-01-03T04:55:22.837Z,93.2
2018-01-03T04:56:22.043Z,93.3
2018-01-03T04:57:20.640Z,93.2
2018-01-03T04:58:20.075Z,93.4
2018-01-03T04:59:19.180Z,93.5
2018-01-03T05:00:17.880Z,93.7
2018-01-03T05:00:48.306Z,93.7
2018-01-03T05:01:18.610Z,93
2018-01-03T05:02:15.986Z,92.7
2018-01-03T05:04:13.962Z,93.2
2018-01-03T05:05:13.058Z,93
2018-01-03T05:06:12.156Z,92.6
2018-01-03T05:07:11.247Z,92.9
2018-01-03T05:08:10.341Z,92.9
2018-01-03T05:09:09.326Z,92.9
2018-01-03T05:10:08.210Z,93.3
2018-01-03T05:11:07.302Z,92.4
2018-01-03T05:12:06.393Z,92.3
2018-01-03T05:13:05.281Z,92.2
2018-01-03T05:14:04.485Z,92.2
2018-01-03T05:15:03.579Z,92.4
2018-01-03T05:16:02.269Z,92.6
2018-01-03T05:17:01.362Z,92.7
2018-01-03T05:18:00.455Z,92.8
2018-01-03T05:18:59.333Z,92.3
2018-01-03T05:19:58.322Z,92.4
2018-01-03T05:20:57.707Z,92.4
2018-01-03T05:21:56.799Z,92.8
2018-01-03T05:22:55.394Z,92.7
2018-01-03T05:23:54.988Z,92.3
2018-01-03T05:24:53.877Z,91.8
2018-01-03T05:25:52.581Z,91.6
2018-01-03T05:26:52.068Z,91.7
2018-01-03T05:27:51.058Z,91.4
2018-01-03T05:28:49.649Z,91.5
2018-01-03T05:30:48.130Z,91.8
2018-01-03T05:31:46.725Z,91.7
2018-01-03T05:32:45.918Z,91.7
2018-01-03T05:33:45.009Z,92
2018-01-03T05:34:44.206Z,91.9
2018-01-03T05:35:43.014Z,91.8
2018-01-03T05:36:42.103Z,92
2018-01-03T05:37:40.876Z,92.3
2018-01-03T05:38:40.365Z,92.2
2018-01-03T05:39:38.954Z,92.3
2018-01-03T05:40:38.163Z,92.3
2018-01-03T05:41:37.364Z,92.4
2018-01-03T05:42:36.358Z,92.4
2018-01-03T05:43:35.459Z,92.4
2018-01-03T05:44:34.349Z,92.6
2018-01-03T05:45:04.867Z,92.6
2018-01-03T05:46:32.361Z,92.9
2018-01-03T05:47:31.564Z,93.1
2018-01-03T05:48:30.448Z,92.9
2018-01-03T05:50:28.723Z,93
2018-01-03T05:51:27.822Z,93.1
2018-01-03T05:52:26.814Z,93.2
2018-01-03T05:53:25.702Z,93.1
2018-01-03T05:54:24.800Z,93.3
2018-01-03T05:55:23.680Z,93.1
2018-01-03T05:56:22.781Z,93.1
2018-01-03T05:57:21.673Z,93.2
2018-01-03T05:58:20.764Z,93.4
2018-01-03T06:00:19.029Z,93.5
2018-01-03T06:01:18.124Z,93.5
2018-01-03T06:02:16.820Z,93.3
2018-01-03T06:03:15.915Z,93.3
2018-01-03T06:04:14.811Z,93.5
2018-01-03T06:05:14.199Z,94
2018-01-03T06:06:12.851Z,93.9
2018-01-03T06:07:12.456Z,94.4
2018-01-03T06:08:11.265Z,94.5
2018-01-03T06:09:10.066Z,94.5
2018-01-03T06:10:09.348Z,94.8
2018-01-03T06:11:08.443Z,94.7
2018-01-03T06:12:07.258Z,94.8
2018-01-03T06:13:06.140Z,94.7
2018-01-03T06:14:05.636Z,94.5
2018-01-03T06:15:04.341Z,94.7
2018-01-03T06:16:03.627Z,94.9
2018-01-03T06:17:02.622Z,94.8
2018-01-03T06:18:01.604Z,94.9
2018-01-03T06:19:59.478Z,95.2
2018-01-03T06:21:57.954Z,95.6
2018-01-03T06:22:56.548Z,95.6
2018-01-03T06:23:55.535Z,95.7
2018-01-03T06:24:25.841Z,95.7
2018-01-03T06:24:56.250Z,95.8
2018-01-03T06:25:26.553Z,95.8
2018-01-03T06:25:56.968Z,95.9
2018-01-03T06:26:27.485Z,95.9
2018-01-03T06:28:50.911Z,96.2
2018-01-03T06:29:49.897Z,96.3
2018-01-03T06:30:48.903Z,96.3
2018-01-03T06:31:48.002Z,96.2
2018-01-03T06:32:46.996Z,96.1
2018-01-03T06:33:46.088Z,96.1
2018-01-03T06:34:45.182Z,96
2018-01-03T06:35:44.269Z,96.2
2018-01-03T06:36:43.262Z,96.4
2018-01-03T06:37:42.256Z,96.3
2018-01-03T06:38:41.351Z,96.3
2018-01-03T06:40:39.327Z,96.3
2018-01-03T06:41:38.320Z,96.2
2018-01-03T06:42:37.414Z,96.3
2018-01-03T06:43:36.615Z,96.2
2018-01-03T06:44:35.709Z,96.1
2018-01-03T06:45:34.408Z,96.2
2018-01-03T06:46:33.291Z,96.4
2018-01-03T06:47:32.789Z,96.2
2018-01-03T06:48:31.573Z,96.4
2018-01-03T06:49:30.661Z,96.5
2018-01-03T06:50:29.859Z,96.5
2018-01-03T06:51:28.856Z,96.6
2018-01-03T06:52:27.953Z,96.4
2018-01-03T06:53:27.048Z,96.4
2018-01-03T06:54:25.747Z,96.4
2018-01-03T06:55:24.954Z,96.5
2018-01-03T06:56:23.947Z,96.7
2018-01-03T06:57:23.045Z,96.7
2018-01-03T06:58:21.841Z,96.7
2018-01-03T06:59:21.287Z,96.7
2018-01-03T07:00:20.280Z,96.6
2018-01-03T07:01:19.378Z,96.6
2018-01-03T07:02:18.379Z,96.4
2018-01-03T07:03:17.273Z,96.3
2018-01-03T07:04:16.151Z,96.1
2018-01-03T07:05:15.568Z,96.1
2018-01-03T07:05:45.870Z,96.1
2018-01-03T07:06:16.273Z,96.1
2018-01-03T07:06:46.680Z,96.1
2018-01-03T07:07:17.255Z,96.2
2018-01-03T07:07:47.393Z,96.2
2018-01-03T07:09:11.461Z,95.9
2018-01-03T07:10:10.450Z,95.9
2018-01-03T07:11:09.650Z,96
2018-01-03T07:12:08.453Z,95.9
2018-01-03T07:13:07.549Z,96
2018-01-03T07:14:06.544Z,95.9
2018-01-03T07:15:05.532Z,95.9
2018-01-03T07:15:35.838Z,95.9
2018-01-03T07:17:03.911Z,95.9
2018-01-03T07:18:03.013Z,95.9
2018-01-03T07:19:01.604Z,96.1
2018-01-03T07:20:00.715Z,96.2
2018-01-03T07:20:59.926Z,96
2018-01-03T07:21:58.912Z,95.9
2018-01-03T07:22:58.108Z,95.6
2018-01-03T07:24:56.081Z,95.7
2018-01-03T07:25:55.071Z,95.7
2018-01-03T07:26:54.172Z,95.8
2018-01-03T07:27:53.269Z,95.6
2018-01-03T07:28:52.252Z,95.6
2018-01-03T07:29:51.238Z,95.7
2018-01-03T07:30:50.232Z,95.6
2018-01-03T07:31:49.222Z,95.6
2018-01-03T07:32:48.617Z,95.7
2018-01-03T07:33:47.604Z,95.5
2018-01-03T07:34:46.591Z,95.5
2018-01-03T07:35:45.394Z,95.6
2018-01-03T07:36:44.777Z,95.6
2018-01-03T07:37:43.687Z,95.8
2018-01-03T07:38:42.782Z,95.6
2018-01-03T07:39:41.667Z,95.7
2018-01-03T07:40:40.760Z,95.7
2018-01-03T07:41:39.857Z,95.6
2018-01-03T07:42:39.054Z,95.7
2018-01-03T07:43:38.047Z,95.5
2018-01-03T07:44:37.033Z,95
2018-01-03T07:45:35.920Z,95
2018-01-03T07:46:35.017Z,95
2018-01-03T07:47:34.113Z,95.1
2018-01-03T07:48:32.999Z,95
2018-01-03T07:49:32.094Z,95.1
2018-01-03T07:50:31.204Z,95.1
2018-01-03T07:51:30.478Z,95.2
2018-01-03T07:54:27.179Z,94.3
2018-01-03T07:55:26.490Z,94.5
2018-01-03T07:56:25.377Z,94.6
2018-01-03T07:57:24.364Z,94.6
2018-01-03T07:58:23.789Z,94.4
2018-01-03T07:59:22.792Z,94.1
2018-01-03T08:01:20.765Z,93.8
2018-01-03T08:02:19.753Z,93.9
2018-01-03T08:03:18.746Z,93.9
2018-01-03T08:04:17.736Z,93.6
2018-01-03T08:05:16.944Z,93.8
2018-01-03T08:06:15.947Z,94
2018-01-03T08:07:15.255Z,94.1
2018-01-03T08:08:14.250Z,93.7
2018-01-03T08:09:13.247Z,93.6
2018-01-03T08:10:11.943Z,93.8
2018-01-03T08:11:11.328Z,93.7
2018-01-03T08:12:10.324Z,93.4
2018-01-03T08:13:09.209Z,93.5
2018-01-03T08:14:08.204Z,93.8
2018-01-03T08:15:07.292Z,93.5
2018-01-03T08:16:06.292Z,93.7
2018-01-03T08:17:05.393Z,93.7
2018-01-03T08:18:04.500Z,93.8
2018-01-03T08:19:03.481Z,93.6
2018-01-03T08:20:02.372Z,93.5
2018-01-03T08:21:01.979Z,93.6
2018-01-03T08:22:00.529Z,93.5
2018-01-03T08:22:59.916Z,92.8
2018-01-03T08:23:58.904Z,93.2
2018-01-03T08:24:29.208Z,93.2
2018-01-03T08:24:59.408Z,92.6
2018-01-03T08:25:57.140Z,92.7
2018-01-03T08:26:56.126Z,92.6
2018-01-03T08:27:55.326Z,92.4
2018-01-03T08:28:53.918Z,92.3
2018-01-03T08:29:53.113Z,92.2
2018-01-03T08:30:52.102Z,92.4
2018-01-03T08:31:51.209Z,92.2
2018-01-03T08:32:50.414Z,92
2018-01-03T08:33:49.515Z,92
2018-01-03T08:34:19.925Z,92
2018-01-03T08:34:50.330Z,92
2018-01-03T08:35:20.752Z,92
2018-01-03T08:35:51.264Z,92
2018-01-03T08:36:46.627Z,92
2018-01-03T08:37:45.513Z,91.9
2018-01-03T08:38:44.712Z,92
2018-01-03T08:39:43.811Z,92
2018-01-03T08:40:42.795Z,92.2
2018-01-03T08:41:41.889Z,92.2
2018-01-03T08:42:40.985Z,92.4
2018-01-03T08:43:40.079Z,92.5
2018-01-03T08:44:38.885Z,92.3
2018-01-03T08:45:37.869Z,92.4
2018-01-03T08:46:37.358Z,92.2
2018-01-03T08:47:36.104Z,92
2018-01-03T08:49:34.289Z,92
2018-01-03T08:50:33.175Z,91.9
2018-01-03T08:51:32.069Z,91.8
2018-01-03T08:52:31.451Z,91.8
2018-01-03T08:53:30.653Z,91.5
2018-01-03T08:54:29.542Z,91.1
2018-01-03T08:55:28.850Z,91.3
2018-01-03T08:56:27.727Z,91.4
2018-01-03T08:57:26.713Z,91.2
2018-01-03T08:58:25.705Z,91
2018-01-03T08:59:24.906Z,90.7
2018-01-03T09:00:24.059Z,90.9
2018-01-03T09:01:22.845Z,90.7
2018-01-03T09:02:22.045Z,90.7
2018-01-03T09:03:21.137Z,90.8
2018-01-03T09:04:20.234Z,90.2
2018-01-03T09:05:19.221Z,90.4
2018-01-03T09:06:18.318Z,90.6
2018-01-03T09:07:17.518Z,90.2
2018-01-03T09:08:16.323Z,90.3
2018-01-03T09:09:15.317Z,90.4
2018-01-03T09:10:14.407Z,90.4
2018-01-03T09:11:13.511Z,90.1
2018-01-03T09:12:12.399Z,90.1
2018-01-03T09:13:11.593Z,90.2
2018-01-03T09:14:10.872Z,90.2
2018-01-03T09:14:41.180Z,90.2
2018-01-03T09:15:11.485Z,90.3
2018-01-03T09:15:41.894Z,90.3
2018-01-03T09:17:07.956Z,90
2018-01-03T09:18:06.840Z,89.7
2018-01-03T09:19:05.944Z,89.6
2018-01-03T09:20:05.337Z,89.2
2018-01-03T09:21:04.328Z,89.3
2018-01-03T09:22:03.426Z,89.2
2018-01-03T09:23:02.414Z,89.3
2018-01-03T09:24:01.660Z,89.2
2018-01-03T09:25:00.657Z,89.4
2018-01-03T09:25:59.359Z,89.3
2018-01-03T09:26:58.781Z,88.8
2018-01-03T09:27:57.983Z,88.9
2018-01-03T09:28:56.570Z,88.6
2018-01-03T09:29:56.171Z,88.4
2018-01-03T09:31:53.765Z,88.4
2018-01-03T09:32:53.159Z,88.1
2018-01-03T09:33:52.254Z,88.1
2018-01-03T09:34:51.468Z,87.6
2018-01-03T09:35:50.274Z,87.5
2018-01-03T09:36:49.518Z,87.1
2018-01-03T09:37:48.613Z,87
2018-01-03T09:38:47.397Z,87.2
2018-01-03T09:39:46.503Z,87.4
2018-01-03T09:40:45.394Z,87.3
2018-01-03T09:41:44.882Z,86.6
2018-01-03T09:42:43.767Z,86.8
2018-01-03T09:43:43.007Z,86.4
2018-01-03T09:44:13.200Z,86.4
2018-01-03T09:44:43.719Z,85.5
2018-01-03T09:45:41.197Z,85.4
2018-01-03T09:46:40.084Z,85.1
2018-01-03T09:47:38.964Z,84.1
2018-01-03T09:48:38.469Z,84.4
2018-01-03T09:49:37.159Z,83.9
2018-01-03T09:51:35.645Z,83.4
2018-01-03T09:52:34.848Z,83.5
2018-01-03T09:53:33.948Z,83.1
2018-01-03T09:55:31.928Z,83.5
2018-01-03T09:56:02.446Z,83.5
2018-01-03T09:56:32.752Z,82.6
2018-01-03T09:57:30.133Z,82.9
2018-01-03T09:58:29.234Z,83.1
2018-01-03T09:59:28.234Z,82.8
2018-01-03T10:00:27.232Z,82.5
2018-01-03T10:02:25.415Z,81.7
2018-01-03T10:03:24.400Z,80.9
2018-01-03T10:04:23.496Z,80.5
2018-01-03T10:06:21.973Z,81.8
2018-01-03T10:07:20.560Z,81.4
2018-01-03T10:08:20.154Z,81.6
2018-01-03T10:09:19.035Z,81.6
2018-01-03T10:10:18.127Z,80.8
2018-01-03T10:10:48.679Z,80.8
2018-01-03T10:11:19.487Z,80.4
2018-01-03T10:12:15.963Z,79.9
2018-01-03T10:13:15.164Z,79.9
2018-01-03T10:14:14.370Z,80.6
2018-01-03T10:15:13.363Z,80.8
2018-01-03T10:16:12.355Z,79.4
2018-01-03T10:17:11.456Z,79.9
2018-01-03T10:18:10.560Z,80
2018-01-03T10:19:09.651Z,79.2
2018-01-03T10:20:09.156Z,79.8
2018-01-03T10:21:07.746Z,79.7
2018-01-03T10:22:07.248Z,80
2018-01-03T10:23:06.135Z,79.8
2018-01-03T10:24:05.230Z,80.1
2018-01-03T10:25:04.223Z,79.4
2018-01-03T10:26:03.427Z,79.2
2018-01-03T10:27:02.566Z,79.3
2018-01-03T10:28:01.886Z,78.8
2018-01-03T10:29:00.877Z,78.9
2018-01-03T10:30:00.092Z,79
2018-01-03T10:30:59.091Z,78.9
2018-01-03T10:31:57.976Z,78.4
2018-01-03T10:32:56.973Z,78.3
2018-01-03T10:33:56.278Z,77.8
2018-01-03T10:34:55.277Z,77.7
2018-01-03T10:35:54.269Z,77.8
2018-01-03T10:36:53.580Z,77.3
2018-01-03T10:37:52.357Z,77.2
2018-01-03T10:38:51.851Z,78.1
2018-01-03T10:39:50.733Z,77.1
2018-01-03T10:40:49.939Z,77.1
2018-01-03T10:41:20.238Z,77.1
2018-01-03T10:41:50.750Z,75.8
2018-01-03T10:42:47.728Z,75.9
2018-01-03T10:43:47.223Z,76
2018-01-03T10:44:46.206Z,75.2
2018-01-03T10:45:45.304Z,75
2018-01-03T10:46:44.512Z,73.7
2018-01-03T10:47:43.618Z,71.6
2018-01-03T10:48:42.819Z,72.3
2018-01-03T10:49:41.811Z,71.9
2018-01-03T10:50:12.231Z,71.9
2018-01-03T10:50:42.756Z,73.5
2018-01-03T10:51:13.455Z,73.5
2018-01-03T10:51:43.760Z,72.9
2018-01-03T10:52:14.173Z,72.9
2018-01-03T10:52:44.667Z,73.3
2018-01-03T10:53:14.973Z,73.3
2018-01-03T10:54:37.112Z,74.3
2018-01-03T10:55:36.099Z,74
2018-01-03T10:56:35.698Z,74.3
2018-01-03T10:57:34.688Z,75.3
2018-01-03T10:58:33.682Z,75.2
2018-01-03T10:59:32.671Z,75.2
2018-01-03T11:00:31.765Z,75
2018-01-03T11:01:30.963Z,76
2018-01-03T11:02:29.954Z,75.7
2018-01-03T11:03:00.469Z,75.7
2018-01-03T11:03:30.592Z,75.8
2018-01-03T11:04:00.995Z,75.8
2018-01-03T11:05:27.264Z,76
2018-01-03T11:06:26.267Z,77
2018-01-03T11:07:25.646Z,76.7
2018-01-03T11:08:24.531Z,77.1
2018-01-03T11:10:23.115Z,77.9
2018-01-03T11:11:21.814Z,77.8
2018-01-03T11:12:21.109Z,79.4
2018-01-03T11:13:19.930Z,81.4
2018-01-03T11:14:18.921Z,83
2018-01-03T11:15:18.524Z,83.2
2018-01-03T11:16:17.620Z,84
2018-01-03T11:17:16.616Z,82.1
2018-01-03T11:18:15.710Z,80.8
2018-01-03T11:19:14.817Z,81.7
2018-01-03T11:20:13.908Z,83.4
2018-01-03T11:21:12.897Z,82.5
2018-01-03T11:22:12.096Z,84.8
2018-01-03T11:23:10.905Z,84.6
2018-01-03T11:24:10.190Z,85.5
2018-01-03T11:25:09.288Z,86
2018-01-03T11:26:08.176Z,87.2
2018-01-03T11:27:07.165Z,87.3
2018-01-03T11:28:06.265Z,85.6
2018-01-03T11:29:05.864Z,86.7
2018-01-03T11:30:04.857Z,87.6
2018-01-03T11:31:03.954Z,89.7
2018-01-03T11:31:34.469Z,89.7
2018-01-03T11:32:04.668Z,89.6
2018-01-03T11:32:35.079Z,89.6
2018-01-03T11:33:05.778Z,90.1
2018-01-03T11:33:36.183Z,90.1
2018-01-03T11:34:06.703Z,89.4
2018-01-03T11:34:37.125Z,89.4
2018-01-03T11:35:59.370Z,91
2018-01-03T11:36:58.030Z,91.1
2018-01-03T11:37:57.127Z,91.4
2018-01-03T11:39:55.501Z,90.9
2018-01-03T11:40:54.594Z,90.4
2018-01-03T11:41:53.692Z,88.6
2018-01-03T11:42:52.893Z,88.8
2018-01-03T11:43:51.989Z,88.6
2018-01-03T11:44:22.501Z,88.6
2018-01-03T11:45:49.781Z,88.5
2018-01-03T11:46:48.991Z,88.1
2018-01-03T11:47:47.770Z,88.8
2018-01-03T11:48:46.869Z,88.6
2018-01-03T11:50:45.067Z,85.4
2018-01-03T11:51:44.060Z,86.5
2018-01-03T11:52:43.149Z,86.9
2018-01-03T11:53:42.141Z,84
2018-01-03T11:54:41.739Z,84
2018-01-03T11:55:40.226Z,84.5
2018-01-03T11:56:39.625Z,85.4
2018-01-03T11:58:37.710Z,83.8
2018-01-03T11:59:36.915Z,83.1
2018-01-03T12:00:35.811Z,83.8
2018-01-03T12:01:34.805Z,84.1
2018-01-03T12:02:33.901Z,83.7
2018-01-03T12:03:32.992Z,84.2
2018-01-03T12:04:31.978Z,84.1
2018-01-03T12:05:31.074Z,84.6
2018-01-03T12:06:30.166Z,84.1
2018-01-03T12:07:29.494Z,83.8
2018-01-03T12:08:28.514Z,84.3
2018-01-03T12:09:27.227Z,84
2018-01-03T12:10:26.436Z,84.2
2018-01-03T12:12:24.627Z,85
2018-01-03T12:13:23.833Z,84.5
2018-01-03T12:14:22.322Z,83.7
2018-01-03T12:15:21.814Z,84.4
2018-01-03T12:16:20.706Z,84.2
2018-01-03T12:17:19.905Z,84.1
2018-01-03T12:18:18.901Z,84.1
2018-01-03T12:19:18.004Z,84.7
2018-01-03T12:21:15.882Z,85.6
2018-01-03T12:22:14.876Z,85.5
2018-01-03T12:23:14.183Z,85
2018-01-03T12:24:13.388Z,85.1
2018-01-03T12:25:12.375Z,84.5
2018-01-03T12:25:42.893Z,84.5
2018-01-03T12:26:13.196Z,83.9
2018-01-03T12:27:10.173Z,83.4
2018-01-03T12:28:09.161Z,83.2
2018-01-03T12:29:08.266Z,84.2
2018-01-03T12:29:38.397Z,84.2
2018-01-03T12:30:08.807Z,83.7
2018-01-03T12:31:06.287Z,84.7
2018-01-03T12:32:05.673Z,85
2018-01-03T12:33:04.483Z,85.3
2018-01-03T12:34:03.795Z,84.3
2018-01-03T12:35:02.572Z,85
2018-01-03T12:37:01.123Z,85.1
2018-01-03T12:37:59.947Z,85.8
2018-01-03T12:40:57.096Z,83.9
2018-01-03T12:41:56.487Z,84.3
2018-01-03T12:42:55.485Z,83.6
2018-01-03T12:43:54.370Z,84.2
2018-01-03T12:44:53.355Z,84
2018-01-03T12:45:52.347Z,83.6
2018-01-03T12:46:51.347Z,84
2018-01-03T12:47:50.442Z,83.7
2018-01-03T12:48:49.428Z,83.7
2018-01-03T12:49:48.521Z,83
2018-01-03T12:50:47.405Z,82.9
2018-01-03T12:51:46.697Z,83.9
2018-01-03T12:52:45.789Z,84.4
2018-01-03T12:53:44.775Z,84
2018-01-03T12:54:43.655Z,83.9
2018-01-03T12:55:42.749Z,83.4
2018-01-03T12:56:41.941Z,84.2
2018-01-03T12:57:41.147Z,84.2
2018-01-03T12:58:39.921Z,84.6
2018-01-03T12:59:39.312Z,82.8
2018-01-03T13:00:38.305Z,82.2
2018-01-03T13:01:37.410Z,83
2018-01-03T13:02:36.503Z,82.9
2018-01-03T13:03:35.490Z,82.4
2018-01-03T13:04:34.593Z,83.2
2018-01-03T13:05:33.696Z,82.4
2018-01-03T13:06:32.580Z,82.8
2018-01-03T13:07:31.763Z,82.7
2018-01-03T13:08:30.675Z,83
2018-01-03T13:09:00.777Z,83
2018-01-03T13:09:31.109Z,81.8
2018-01-03T13:10:01.410Z,81.8
2018-01-03T13:10:31.611Z,81.4
2018-01-03T13:11:01.918Z,81.4